Terminal Aerodrome Forecast
Issued by NWS Rapid City, SD

Home | Current Version | Previous Version | Text Only | Print | Product List | Glossary Off
Versions: 1 2 3 4 5 6 7 8 9 10 11 12 13 14 15 16 17 18 19 20 21

122
FTUS43 KUNR 142005 AAA
TAFRAP
TAF AMD
KRAP 142005Z 1420/1518 34023G33KT 2SM -SN BKN006 OVC025
     FM150200 34020G30KT P6SM SCT025 BKN060
     FM150800 34018G28KT P6SM SKC=

USA.gov is the U.S. government's official web portal to all federal, state and local government web resources and services.